Terminal Aerodrome Forecast
Issued by NWS

Current Version | Previous Version | Text Only | Print | Product List | Glossary On
Versions: 1 2 3 4 5 6 7 8 9 10 11 12 13 14 15 16 17 18 19
000
FTUS45 KSLC 250408 AAD
TAFPVU
TAF AMD
KPVU 250408Z 2504/2524 14012KT P6SM SCT060 BKN090
     FM250500 11005KT P6SM SCT090
     FM250900 15008KT P6SM VCSH SCT060 BKN090
     FM251700 25008KT P6SM SCT050 BKN090
      AMD LTD TO CLD VIS AND WIND=

USA.gov is the U.S. government's official web portal to all federal, state and local government web resources and services.